SBGW

Details ICAO SBGW
Name GUARATINGUETA
Region Brazil
Timezone America/Sao_Paulo (UTC-3.0)
Plans Departing 2
Arriving 4
Stats Elevation 1,761 ft / 537 m (AMSL)
Location -22.791608° -45.204779°
Runways 1
Magnetic Variation 22.094° W
Sunrise 2018-05-20 09:30:03 UTC / 2018-05-20 06:30:03 Local
Sunset 2018-05-20 20:27:30 UTC / 2018-05-20 17:27:30 Local
Advertisement - Login to hide

Runways

ID Width Length Bearing (true) Bearing (mag) Surface Threshold Offset Overrun Length
02 98 ft / 30 m 5,111 ft / 1,558 m 359.00° 21.09° Asphalt 0 ft / 0 m 0 ft / 0 m
20 98 ft / 30 m 5,111 ft / 1,558 m 179.00° 201.09° Asphalt 0 ft / 0 m 0 ft / 0 m

Map

Weather


0- 5 10 15 20 25 30 35+ Temperature / ° C

Clouds and Precipitation
Forecast for 2018-05-20 12:00 UTC. Updated an hour ago

Ground ~20,000 ft ~40,000 ft Winds

METAR

Not found

TAF

TAF SBGW 200300Z 2006/2018 26012KT 7000 SCT015 TN14/2008Z TX20/2017Z BECMG 2010/2012 CAVOK RMK PDW

Frequencies

Tower 125.90 MHz GUARA TWR
Approach 122.80 MHz GUARA APP
Tower 122.80 MHz GUARA TWR
Warning: Do not use this data for real-world aviation or navigation. No guarantee of current accuracy is given.